createdAt,value
2018-08-04T00:01:23.005Z,11.18
2018-08-04T00:03:51.516Z,11.20
2018-08-04T00:06:20.063Z,12.55
2018-08-04T00:08:48.616Z,13.93
2018-08-04T00:11:17.168Z,7.53
2018-08-04T00:13:45.657Z,9.55
2018-08-04T00:16:14.186Z,13.80
2018-08-04T00:18:42.662Z,14.13
2018-08-04T00:21:11.209Z,15.00
2018-08-04T00:23:39.705Z,11.90
2018-08-04T00:26:08.188Z,10.80
2018-08-04T00:28:36.653Z,12.37
2018-08-04T00:31:05.186Z,12.82
2018-08-04T00:33:33.660Z,13.55
2018-08-04T00:36:02.171Z,14.65
2018-08-04T00:38:30.696Z,12.47
2018-08-04T00:40:59.200Z,12.00
2018-08-04T00:43:27.679Z,11.30
2018-08-04T00:45:56.543Z,19.92
2018-08-04T00:48:25.071Z,17.03
2018-08-04T00:50:53.740Z,10.32
2018-08-04T00:53:22.232Z,11.85
2018-08-04T00:55:50.768Z,32.83
2018-08-04T00:58:19.455Z,55.08
2018-08-04T01:00:47.982Z,79.03
2018-08-04T01:03:16.496Z,46.50
2018-08-04T01:05:44.992Z,35.08
2018-08-04T01:08:13.550Z,19.60
2018-08-04T01:10:42.017Z,16.15
2018-08-04T01:13:10.529Z,15.08
2018-08-04T01:15:39.076Z,21.48
2018-08-04T01:18:07.749Z,38.38
2018-08-04T01:20:36.387Z,32.20
2018-08-04T01:23:05.022Z,51.48
2018-08-04T01:25:33.772Z,32.85
2018-08-04T01:28:02.279Z,19.87
2018-08-04T01:30:30.746Z,19.95
2018-08-04T01:32:59.504Z,17.42
2018-08-04T01:35:28.305Z,11.57
2018-08-04T01:37:57.160Z,12.55
2018-08-04T01:40:25.716Z,14.85
2018-08-04T01:42:54.282Z,14.80
2018-08-04T01:45:22.875Z,13.48
2018-08-04T01:47:51.424Z,9.43
2018-08-04T01:50:19.914Z,8.70
2018-08-04T01:52:48.780Z,9.50
2018-08-04T01:55:17.230Z,14.33
2018-08-04T01:57:45.734Z,15.78
2018-08-04T02:00:14.251Z,9.35
2018-08-04T02:02:42.764Z,9.48
2018-08-04T02:05:11.492Z,15.93
2018-08-04T02:07:40.230Z,11.63
2018-08-04T02:10:08.775Z,9.15
2018-08-04T02:12:37.268Z,9.08
2018-08-04T02:15:05.959Z,14.85
2018-08-04T02:17:34.597Z,12.00
2018-08-04T02:20:03.058Z,10.08
2018-08-04T02:22:31.560Z,12.45
2018-08-04T02:25:00.268Z,9.30
2018-08-04T02:27:29.081Z,11.70
2018-08-04T02:29:57.763Z,11.50
2018-08-04T02:32:26.281Z,8.98
2018-08-04T02:34:54.953Z,11.53
2018-08-04T02:37:23.652Z,10.28
2018-08-04T02:39:52.324Z,9.75
2018-08-04T02:42:20.896Z,13.80
2018-08-04T02:44:49.650Z,13.68
2018-08-04T02:47:18.224Z,9.28
2018-08-04T02:49:46.696Z,9.25
2018-08-04T02:52:15.277Z,11.12
2018-08-04T02:54:43.854Z,11.10
2018-08-04T02:57:13.265Z,13.05
2018-08-04T02:59:41.732Z,9.90
2018-08-04T03:02:10.445Z,8.53
2018-08-04T03:04:38.973Z,9.38
2018-08-04T03:07:07.477Z,9.55
2018-08-04T03:09:36.111Z,10.10
2018-08-04T03:12:04.697Z,11.33
2018-08-04T03:14:33.155Z,13.00
2018-08-04T03:17:01.727Z,9.10
2018-08-04T03:19:30.644Z,9.60
2018-08-04T03:21:59.379Z,11.22
2018-08-04T03:24:27.884Z,9.58
2018-08-04T03:26:56.353Z,11.40
2018-08-04T03:29:24.858Z,13.40
2018-08-04T03:31:53.325Z,10.30
2018-08-04T03:34:21.805Z,12.63
2018-08-04T03:36:50.315Z,17.67
2018-08-04T03:39:18.783Z,9.35
2018-08-04T03:41:47.236Z,12.18
2018-08-04T03:44:15.707Z,9.48
2018-08-04T03:46:44.175Z,8.83
2018-08-04T03:49:12.663Z,11.88
2018-08-04T03:51:41.192Z,10.40
2018-08-04T03:54:09.691Z,11.20
2018-08-04T03:56:38.279Z,9.95
2018-08-04T03:59:06.740Z,8.58
2018-08-04T04:01:35.225Z,11.25
2018-08-04T04:04:03.740Z,9.20
2018-08-04T04:06:32.363Z,9.78
2018-08-04T04:09:00.809Z,10.30
2018-08-04T04:11:29.299Z,9.23
2018-08-04T04:13:57.768Z,9.05
2018-08-04T04:16:26.230Z,9.55
2018-08-04T04:18:54.787Z,11.53
2018-08-04T04:21:23.246Z,10.90
2018-08-04T04:23:52.342Z,9.78
2018-08-04T04:26:20.814Z,8.80
2018-08-04T04:28:49.288Z,8.63
2018-08-04T04:31:17.813Z,10.13
2018-08-04T04:33:46.376Z,11.63
2018-08-04T04:36:14.925Z,11.93
2018-08-04T04:38:43.596Z,14.05
2018-08-04T04:41:12.061Z,15.23
2018-08-04T04:43:40.537Z,8.48
2018-08-04T04:46:08.993Z,9.43
2018-08-04T04:48:37.602Z,9.03
2018-08-04T04:51:06.229Z,14.20
2018-08-04T04:53:34.728Z,9.30
2018-08-04T04:56:03.230Z,8.35
2018-08-04T04:58:31.712Z,11.05
2018-08-04T05:01:00.321Z,8.00
2018-08-04T05:03:28.899Z,7.72
2018-08-04T05:05:57.430Z,9.18
2018-08-04T05:08:25.899Z,8.58
2018-08-04T05:10:54.368Z,9.63
2018-08-04T05:13:22.930Z,12.13
2018-08-04T05:15:51.378Z,9.90
2018-08-04T05:18:19.869Z,14.05
2018-08-04T05:20:48.348Z,10.45
2018-08-04T05:23:16.845Z,8.83
2018-08-04T05:25:45.349Z,10.32
2018-08-04T05:28:13.881Z,10.38
2018-08-04T05:30:42.384Z,15.13
2018-08-04T05:33:10.868Z,9.10
2018-08-04T05:35:39.575Z,11.80
2018-08-04T05:38:08.048Z,11.57
2018-08-04T05:40:36.615Z,8.88
2018-08-04T05:43:05.108Z,8.58
2018-08-04T05:45:33.750Z,10.23
2018-08-04T05:48:02.191Z,12.25
2018-08-04T05:50:30.663Z,13.15
2018-08-04T05:52:59.192Z,11.38
2018-08-04T05:55:27.670Z,8.33
2018-08-04T05:57:56.218Z,10.85
2018-08-04T06:00:24.667Z,9.30
2018-08-04T06:02:53.157Z,11.68
2018-08-04T06:05:21.667Z,10.43
2018-08-04T06:07:50.136Z,14.68
2018-08-04T06:10:18.638Z,10.35
2018-08-04T06:12:47.260Z,12.33
2018-08-04T06:15:15.731Z,14.07
2018-08-04T06:17:44.276Z,12.68
2018-08-04T06:20:12.751Z,15.25
2018-08-04T06:22:41.253Z,8.40
2018-08-04T06:25:09.751Z,8.03
2018-08-04T06:27:38.209Z,9.00
2018-08-04T06:30:07.188Z,9.83
2018-08-04T06:32:35.653Z,12.50
2018-08-04T06:35:04.156Z,10.53
2018-08-04T06:37:32.645Z,10.03
2018-08-04T06:40:01.143Z,11.00
2018-08-04T06:42:29.596Z,11.45
2018-08-04T06:44:58.114Z,11.05
2018-08-04T06:47:26.687Z,9.95
2018-08-04T06:49:55.180Z,15.30
2018-08-04T06:52:23.683Z,11.00
2018-08-04T06:54:52.144Z,14.80
2018-08-04T06:57:20.645Z,16.10
2018-08-04T06:59:49.173Z,10.85
2018-08-04T07:02:17.668Z,15.05
2018-08-04T07:04:46.233Z,8.18
2018-08-04T07:07:14.676Z,9.85
2018-08-04T07:09:43.144Z,12.63
2018-08-04T07:12:11.692Z,13.90
2018-08-04T07:14:40.200Z,12.65
2018-08-04T07:17:09.545Z,11.78
2018-08-04T07:19:38.000Z,10.10
2018-08-04T07:22:06.493Z,9.43
2018-08-04T07:24:34.970Z,8.83
2018-08-04T07:27:03.501Z,14.33
2018-08-04T07:29:32.016Z,16.87
2018-08-04T07:32:00.599Z,11.43
2018-08-04T07:34:29.091Z,10.88
2018-08-04T07:36:57.733Z,13.15
2018-08-04T07:39:26.270Z,12.98
2018-08-04T07:41:54.828Z,12.73
2018-08-04T07:44:23.302Z,14.30
2018-08-04T07:46:51.886Z,13.68
2018-08-04T07:49:20.397Z,14.85
2018-08-04T07:51:48.924Z,14.00
2018-08-04T07:54:17.376Z,13.10
2018-08-04T07:56:47.514Z,12.58
2018-08-04T07:59:16.704Z,13.80
2018-08-04T08:01:45.205Z,15.53
2018-08-04T08:04:13.688Z,14.73
2018-08-04T08:06:42.200Z,10.60
2018-08-04T08:09:10.674Z,19.48
2018-08-04T08:11:39.193Z,12.73
2018-08-04T08:14:07.711Z,12.50
2018-08-04T08:16:36.274Z,16.45
2018-08-04T08:19:04.776Z,15.43
2018-08-04T08:21:33.332Z,12.13
2018-08-04T08:24:01.857Z,13.62
2018-08-04T08:26:30.329Z,15.10
2018-08-04T08:28:58.819Z,15.48
2018-08-04T08:31:27.348Z,14.98
2018-08-04T08:33:58.965Z,13.22
2018-08-04T08:36:27.663Z,16.80
2018-08-04T08:38:56.283Z,9.80
2018-08-04T08:41:24.788Z,11.57
2018-08-04T08:43:53.346Z,14.15
2018-08-04T08:46:21.846Z,12.47
2018-08-04T08:48:50.358Z,12.55
2018-08-04T08:51:19.192Z,12.78
2018-08-04T08:53:47.760Z,13.30
2018-08-04T08:56:16.156Z,12.93
2018-08-04T08:58:44.636Z,10.43
2018-08-04T09:01:13.212Z,11.35
2018-08-04T09:03:41.695Z,11.38
2018-08-04T09:06:10.191Z,10.50
2018-08-04T09:08:38.773Z,11.65
2018-08-04T09:11:07.225Z,13.35
2018-08-04T09:13:35.712Z,9.93
2018-08-04T09:16:04.213Z,9.30
2018-08-04T09:18:33.372Z,9.68
2018-08-04T09:21:01.920Z,14.98
2018-08-04T09:23:30.401Z,12.03
2018-08-04T09:25:59.100Z,19.77
2018-08-04T09:28:27.612Z,14.20
2018-08-04T09:30:56.149Z,10.43
2018-08-04T09:33:24.612Z,14.10
2018-08-04T09:35:53.125Z,11.12
2018-08-04T09:38:21.644Z,9.88
2018-08-04T09:40:50.116Z,16.45
2018-08-04T09:43:18.583Z,13.03
2018-08-04T09:45:47.072Z,12.10
2018-08-04T09:48:15.592Z,10.72
2018-08-04T09:50:44.083Z,11.05
2018-08-04T09:53:12.583Z,11.80
2018-08-04T09:55:41.072Z,16.27
2018-08-04T09:58:09.553Z,12.63
2018-08-04T10:00:43.408Z,13.18
2018-08-04T10:03:12.101Z,13.50
2018-08-04T10:05:40.556Z,13.13
2018-08-04T10:08:09.044Z,10.43
2018-08-04T10:10:37.508Z,18.10
2018-08-04T10:13:06.052Z,16.27
2018-08-04T10:15:34.533Z,22.50
2018-08-04T10:18:06.834Z,20.45
2018-08-04T10:20:35.393Z,18.75
2018-08-04T10:23:03.935Z,15.50
2018-08-04T10:25:32.400Z,20.08
2018-08-04T10:28:00.896Z,28.42
2018-08-04T10:30:29.380Z,30.75
2018-08-04T10:32:57.961Z,38.40
2018-08-04T10:35:26.413Z,24.70
2018-08-04T10:37:54.906Z,25.57
2018-08-04T10:40:23.387Z,33.50
2018-08-04T10:42:51.864Z,24.60
2018-08-04T10:45:20.487Z,22.77
2018-08-04T10:47:48.952Z,25.05
2018-08-04T10:50:17.520Z,20.32
2018-08-04T10:52:46.003Z,15.72
2018-08-04T10:55:14.449Z,16.32
2018-08-04T10:57:42.928Z,22.62
2018-08-04T11:00:11.487Z,24.65
2018-08-04T11:02:39.976Z,11.55
2018-08-04T11:05:08.649Z,17.48
2018-08-04T11:07:37.157Z,19.17
2018-08-04T11:10:05.803Z,15.20
2018-08-04T11:12:34.338Z,13.90
2018-08-04T11:15:02.756Z,18.73
2018-08-04T11:17:31.255Z,16.70
2018-08-04T11:19:59.725Z,12.47
2018-08-04T11:22:28.184Z,15.75
2018-08-04T11:24:56.725Z,13.25
2018-08-04T11:27:25.509Z,12.28
2018-08-04T11:29:54.036Z,14.98
2018-08-04T11:32:22.550Z,32.50
2018-08-04T11:34:51.032Z,52.50
2018-08-04T11:37:19.540Z,62.48
2018-08-04T11:39:48.017Z,26.07
2018-08-04T11:42:16.472Z,75.15
2018-08-04T11:44:44.968Z,45.95
2018-08-04T11:47:13.492Z,37.78
2018-08-04T11:49:41.985Z,23.77
2018-08-04T11:52:10.648Z,22.37
2018-08-04T11:54:39.144Z,25.95
2018-08-04T11:57:07.607Z,34.80
2018-08-04T11:59:36.108Z,75.32
2018-08-04T12:02:06.592Z,25.90
2018-08-04T12:04:35.120Z,21.37
2018-08-04T12:07:03.709Z,26.55
2018-08-04T12:09:32.186Z,21.75
2018-08-04T12:12:00.691Z,20.08
2018-08-04T12:14:29.183Z,17.52
2018-08-04T12:16:57.645Z,18.20
2018-08-04T12:19:26.157Z,28.80
2018-08-04T12:21:54.727Z,12.95
2018-08-04T12:24:23.240Z,24.95
2018-08-04T12:26:51.716Z,5.70
2018-08-04T12:29:20.190Z,7.37
2018-08-04T12:31:48.716Z,9.98
2018-08-04T12:34:17.259Z,17.52
2018-08-04T12:36:45.755Z,27.52
2018-08-04T12:39:14.442Z,18.95
2018-08-04T12:41:42.892Z,18.20
2018-08-04T12:44:11.413Z,22.22
2018-08-04T12:46:40.500Z,18.67
2018-08-04T12:49:08.993Z,35.80
2018-08-04T12:51:37.483Z,41.00
2018-08-04T12:54:06.004Z,26.05
2018-08-04T12:56:34.481Z,27.93
2018-08-04T12:59:02.996Z,24.55
2018-08-04T13:01:31.610Z,20.23
2018-08-04T13:04:00.107Z,17.02
2018-08-04T13:06:28.557Z,21.35
2018-08-04T13:09:00.844Z,21.70
2018-08-04T13:11:29.359Z,22.95
2018-08-04T13:13:57.874Z,29.20
2018-08-04T13:16:26.361Z,16.25
2018-08-04T13:18:54.866Z,28.75
2018-08-04T13:21:23.356Z,15.38
2018-08-04T13:23:51.840Z,14.13
2018-08-04T13:26:20.423Z,12.05
2018-08-04T13:28:48.929Z,13.30
2018-08-04T13:31:18.308Z,15.93
2018-08-04T13:33:46.796Z,15.28
2018-08-04T13:36:15.370Z,17.75
2018-08-04T13:38:43.870Z,14.98
2018-08-04T13:41:12.352Z,12.30
2018-08-04T13:43:40.858Z,17.90
2018-08-04T13:46:09.372Z,14.60
2018-08-04T13:48:38.004Z,15.83
2018-08-04T13:51:06.764Z,15.95
2018-08-04T13:53:35.224Z,21.80
2018-08-04T13:56:03.755Z,15.50
2018-08-04T13:58:32.660Z,19.70
2018-08-04T14:01:01.148Z,11.15
2018-08-04T14:03:29.608Z,9.28
2018-08-04T14:05:58.196Z,15.15
2018-08-04T14:08:26.722Z,11.53
2018-08-04T14:10:55.271Z,11.97
2018-08-04T14:13:23.736Z,9.00
2018-08-04T14:15:52.259Z,14.50
2018-08-04T14:18:20.758Z,16.12
2018-08-04T14:20:49.274Z,9.85
2018-08-04T14:23:17.785Z,9.35
2018-08-04T14:25:46.290Z,14.78
2018-08-04T14:28:14.764Z,9.25
2018-08-04T14:30:43.296Z,15.28
2018-08-04T14:33:11.783Z,11.10
2018-08-04T14:35:40.306Z,12.13
2018-08-04T14:38:08.832Z,11.15
2018-08-04T14:40:37.367Z,12.55
2018-08-04T14:43:05.865Z,12.45
2018-08-04T14:45:34.408Z,15.72
2018-08-04T14:48:02.911Z,10.00
2018-08-04T14:50:31.400Z,14.10
2018-08-04T14:52:59.886Z,12.88
2018-08-04T14:55:28.355Z,7.37
2018-08-04T14:57:56.973Z,8.85
2018-08-04T15:00:25.603Z,8.18
2018-08-04T15:02:54.123Z,9.88
2018-08-04T15:05:22.600Z,9.08
2018-08-04T15:07:51.136Z,7.67
2018-08-04T15:10:19.627Z,7.62
2018-08-04T15:12:48.088Z,9.80
2018-08-04T15:15:16.892Z,11.60
2018-08-04T15:17:45.352Z,12.25
2018-08-04T15:20:13.887Z,8.08
2018-08-04T15:22:42.782Z,12.47
2018-08-04T15:25:11.266Z,24.07
2018-08-04T15:27:39.815Z,52.17
2018-08-04T15:30:08.341Z,61.45
2018-08-04T15:32:36.852Z,45.25
2018-08-04T15:35:05.416Z,41.00
2018-08-04T15:37:34.132Z,51.83
2018-08-04T15:40:02.664Z,69.47
2018-08-04T15:42:31.188Z,66.42
2018-08-04T15:44:59.765Z,36.08
2018-08-04T15:47:28.531Z,34.58
2018-08-04T15:49:57.048Z,39.40
2018-08-04T15:52:25.536Z,57.17
2018-08-04T15:54:54.012Z,15.25
2018-08-04T15:57:22.561Z,17.55
2018-08-04T15:59:51.044Z,13.95
2018-08-04T16:02:19.549Z,10.13
2018-08-04T16:04:48.087Z,15.88
2018-08-04T16:07:16.588Z,24.60
2018-08-04T16:09:45.063Z,14.45
2018-08-04T16:12:13.590Z,10.13
2018-08-04T16:14:42.279Z,10.28
2018-08-04T16:17:10.889Z,20.60
2018-08-04T16:19:39.352Z,11.80
2018-08-04T16:22:07.820Z,11.83
2018-08-04T16:24:36.344Z,12.63
2018-08-04T16:27:05.542Z,16.48
2018-08-04T16:29:34.072Z,13.45
2018-08-04T16:32:02.756Z,11.68
2018-08-04T16:34:31.419Z,11.08
2018-08-04T16:36:59.903Z,11.12
2018-08-04T16:39:28.416Z,7.72
2018-08-04T16:41:57.235Z,8.98
2018-08-04T16:44:25.689Z,11.40
2018-08-04T16:46:54.248Z,12.35
2018-08-04T16:49:22.862Z,11.10
2018-08-04T16:51:51.637Z,8.30
2018-08-04T16:54:20.187Z,9.78
2018-08-04T16:56:48.766Z,9.05
2018-08-04T16:59:17.282Z,11.28
2018-08-04T17:01:45.741Z,59.40
2018-08-04T17:04:14.531Z,62.53
2018-08-04T17:06:43.378Z,55.60
2018-08-04T17:09:13.044Z,50.30
2018-08-04T17:11:41.932Z,32.30
2018-08-04T17:14:10.448Z,34.13
2018-08-04T17:16:39.269Z,46.40
2018-08-04T17:19:07.796Z,49.80
2018-08-04T17:21:37.236Z,38.08
2018-08-04T17:24:06.101Z,58.95
2018-08-04T17:26:34.640Z,20.48
2018-08-04T17:29:03.245Z,43.65
2018-08-04T17:31:32.101Z,57.48
2018-08-04T17:34:00.945Z,41.02
2018-08-04T17:36:29.427Z,20.62
2018-08-04T17:38:57.931Z,46.53
2018-08-04T17:41:26.464Z,22.87
2018-08-04T17:43:54.969Z,32.45
2018-08-04T17:46:23.476Z,22.37
2018-08-04T17:48:52.359Z,31.07
2018-08-04T17:51:20.852Z,20.60
2018-08-04T17:53:49.321Z,19.98
2018-08-04T17:56:17.872Z,20.40
2018-08-04T17:58:46.632Z,11.03
2018-08-04T18:01:15.184Z,27.67
2018-08-04T18:03:43.703Z,9.95
2018-08-04T18:06:12.188Z,21.77
2018-08-04T18:08:40.700Z,11.45
2018-08-04T18:11:09.180Z,13.62
2018-08-04T18:13:37.689Z,8.85
2018-08-04T18:16:06.233Z,15.85
2018-08-04T18:18:35.111Z,22.32
2018-08-04T18:21:03.702Z,18.82
2018-08-04T18:23:32.212Z,21.80
2018-08-04T18:26:00.764Z,13.05
2018-08-04T18:28:29.324Z,25.48
2018-08-04T18:30:57.849Z,12.10
2018-08-04T18:33:26.371Z,7.20
2018-08-04T18:35:54.871Z,8.15
2018-08-04T18:38:23.492Z,11.83
2018-08-04T18:40:51.970Z,16.85
2018-08-04T18:43:20.489Z,8.50
2018-08-04T18:45:49.074Z,13.18
2018-08-04T18:48:17.634Z,11.30
2018-08-04T18:50:46.340Z,13.93
2018-08-04T18:53:15.077Z,10.72
2018-08-04T18:55:44.598Z,13.20
2018-08-04T18:58:13.272Z,21.70
2018-08-04T19:00:44.104Z,26.25
2018-08-04T19:03:13.263Z,19.90
2018-08-04T19:05:41.901Z,16.85
2018-08-04T19:08:10.395Z,14.87
2018-08-04T19:10:38.927Z,9.85
2018-08-04T19:13:07.955Z,16.12
2018-08-04T19:15:36.445Z,13.20
2018-08-04T19:18:05.584Z,17.60
2018-08-04T19:20:34.198Z,40.78
2018-08-04T19:23:02.907Z,37.45
2018-08-04T19:25:31.404Z,104.58
2018-08-04T19:28:00.224Z,63.58
2018-08-04T19:30:28.678Z,55.98
2018-08-04T19:32:57.286Z,47.08
2018-08-04T19:35:25.909Z,87.80
2018-08-04T19:37:54.432Z,29.37
2018-08-04T19:40:22.963Z,34.48
2018-08-04T19:42:51.646Z,27.02
2018-08-04T19:45:20.323Z,44.58
2018-08-04T19:47:49.040Z,15.45
2018-08-04T19:50:17.730Z,30.85
2018-08-04T19:52:46.307Z,33.80
2018-08-04T19:55:14.802Z,42.27
2018-08-04T19:57:43.701Z,18.35
2018-08-04T20:00:12.344Z,32.00
2018-08-04T20:05:16.065Z,93.52
2018-08-04T20:07:45.454Z,131.35
2018-08-04T20:10:14.054Z,16.12
2018-08-04T20:12:42.606Z,24.23
2018-08-04T20:15:11.151Z,31.93
2018-08-04T20:17:39.657Z,23.12
2018-08-04T20:20:08.174Z,11.73
2018-08-04T20:22:36.643Z,74.35
2018-08-04T20:25:05.740Z,114.42
2018-08-04T20:27:34.480Z,54.10
2018-08-04T20:30:02.997Z,73.78
2018-08-04T20:32:31.492Z,29.63
2018-08-04T20:35:00.089Z,149.23
2018-08-04T20:37:28.605Z,78.40
2018-08-04T20:39:57.213Z,38.75
2018-08-04T20:42:25.754Z,69.82
2018-08-04T20:44:54.314Z,80.03
2018-08-04T20:47:22.791Z,61.37
2018-08-04T20:49:51.826Z,62.05
2018-08-04T20:52:20.337Z,46.60
2018-08-04T20:54:48.843Z,21.05
2018-08-04T20:57:17.456Z,67.80
2018-08-04T20:59:45.949Z,14.28
2018-08-04T21:02:14.666Z,16.93
2018-08-04T21:04:43.125Z,43.42
2018-08-04T21:07:11.700Z,19.42
2018-08-04T21:09:40.301Z,26.80
2018-08-04T21:12:08.884Z,19.17
2018-08-04T21:14:37.370Z,30.15
2018-08-04T21:17:06.124Z,59.95
2018-08-04T21:19:34.686Z,42.98
2018-08-04T21:22:03.422Z,44.00
2018-08-04T21:24:32.100Z,119.60
2018-08-04T21:27:00.851Z,37.90
2018-08-04T21:29:29.573Z,22.40
2018-08-04T21:31:58.085Z,84.03
2018-08-04T21:34:26.629Z,69.77
2018-08-04T21:36:55.177Z,49.65
2018-08-04T21:39:23.663Z,62.67
2018-08-04T21:41:52.632Z,47.80
2018-08-04T21:44:21.111Z,34.55
2018-08-04T21:46:50.628Z,25.68
2018-08-04T21:49:19.540Z,40.17
2018-08-04T21:51:49.545Z,14.25
2018-08-04T21:54:19.922Z,32.78
2018-08-04T21:56:48.029Z,28.55
2018-08-04T21:59:16.757Z,32.10
2018-08-04T22:01:51.139Z,29.05
2018-08-04T22:04:19.921Z,24.35
2018-08-04T22:06:57.009Z,28.80
2018-08-04T22:09:26.132Z,33.53
2018-08-04T22:11:54.785Z,85.32
2018-08-04T22:14:23.282Z,51.80
2018-08-04T22:16:51.768Z,28.85
2018-08-04T22:19:20.320Z,69.15
2018-08-04T22:21:49.434Z,64.75
2018-08-04T22:24:17.927Z,20.27
2018-08-04T22:26:46.490Z,26.90
2018-08-04T22:29:15.041Z,19.98
2018-08-04T22:31:43.532Z,57.13
2018-08-04T22:34:11.994Z,9.18
2018-08-04T22:36:40.500Z,11.83
2018-08-04T22:39:08.963Z,30.35
2018-08-04T22:41:37.633Z,31.37
2018-08-04T22:44:06.145Z,36.55
2018-08-04T22:46:34.648Z,70.70
2018-08-04T22:49:03.212Z,103.85
2018-08-04T22:51:31.756Z,29.30
2018-08-04T22:54:00.240Z,132.78
2018-08-04T22:56:28.760Z,85.92
2018-08-04T22:58:57.234Z,39.92
2018-08-04T23:01:25.736Z,42.62
2018-08-04T23:03:54.341Z,31.42
2018-08-04T23:06:22.805Z,48.65
2018-08-04T23:08:51.339Z,31.95
2018-08-04T23:11:19.980Z,30.68
2018-08-04T23:13:48.484Z,49.60
2018-08-04T23:16:16.955Z,39.67
2018-08-04T23:18:45.467Z,49.30
2018-08-04T23:21:14.084Z,34.75
2018-08-04T23:23:42.633Z,76.07
2018-08-04T23:26:11.124Z,16.45
